Eureka - southern half: Past 24 Hour Conditions

 

Ulukhaktok Airport

03:00 PM MDT 23 April 2014
This table is a summary of hourly weather conditions for the past 24 hours.
Date / Time
(MDT)
Wind(knots) Conditions Visibility(km) Pressure(kPa) Air tempC) Relative humidity(%) Dew pointC) Wind Chill
23 April 2014
15:00 W 2 N/A N/A 103.2 -11 63 -17 -13
14:00 SW 3 N/A N/A 103.2 -11 60 -18 -15
13:00 NNW 1 N/A N/A 103.1 -13 67 -18 -14
12:00 NNW 1 N/A N/A 103.1 -13 55 -20 -15
11:00 W 4 N/A N/A 103.1 -15 70 -20 -20
10:00 S 4 N/A N/A 103.1 -16 65 -21 -21
9:00 NNE 6 N/A N/A 103.1 -16 74 -20 -23
8:00 NNE 3 N/A N/A 103.1 -18 84 -20 -22
7:00 NNW 2 N/A N/A 103.1 -16 87 -18 -19
6:00 N 1 N/A N/A 103.1 -18 87 -20 -20
5:00 ENE 1 N/A N/A 103.1 -18 87 -20 -20
4:00 calm N/A N/A 103.1 -19 86 -21 *
3:00 SSW 2 N/A N/A 103.1 -18 87 -20 -21
2:00 S 2 N/A N/A 103.0 -18 87 -19 -21
1:00 SSW 2 N/A N/A 103.0 -17 89 -18 -20
0:00 SSW 2 N/A N/A 103.0 -17 90 -18 -20
22 April 2014
23:00 calm N/A N/A 103.0 -16 86 -18 *
22:00 NNW 8 N/A N/A 103.0 -15 86 -17 -23
21:00 NW 10 N/A N/A 103.0 -16 85 -18 -25
20:00 NW 9 N/A N/A 103.1 -16 83 -18 -24
19:00 WNW 8 N/A N/A 103.1 -15 77 -18 -22
18:00 NNW 10 N/A N/A 103.1 -13 74 -17 -21
17:00 NW 7 N/A N/A 103.1 -13 76 -16 -19
16:00 W 6 Sunny 24 103.1 -13 74 -17 -19
15:00 calm Sunny 24 103.1 -13 71 -17 *
 
Map of Arctic - Western Arctic marine weather areas Herschel Island Komakuk Beach Shingle Point Airport Aklavik Airport Cape Parry Airport Fort Good Hope Airport Tulita Airport Inuvik Airport Keats Point Norman Wells Airport Paulatuk Airport Pelly Island Tuktoyaktuk Airport Kugluktuk Airport Gjoa Haven Airport Hat Island Kugaaruk Airport Shepherd Bay Airport CFS Alert Arctic Bay Cambridge Bay Airport Cape Peel West Eureka Airport Grise Fiord Airport Hall Beach Airport Igloolik Airport Isachsen Pond Inlet Airport Rea Point Repulse Bay Airport Resolute Airport Stefansson Island Taloyoak Airport Aulavik National Park Ulukhaktok Airport Sachs Harbour Airport Thomsen River Liverpool Bay Little Chicago Storm Hills Croker River Mould Bay Bathurst Inlet Fort Ross Gateshead Island Svartevaeg
Legend: buoyBuoy land stationLand Station » US Marine Weather